createdAt,value
2023-12-29T00:00:32.207Z,57.65
2023-12-29T00:01:32.362Z,57.65
2023-12-29T00:02:32.168Z,57.65
2023-12-29T00:03:32.273Z,57.65
2023-12-29T00:04:32.139Z,57.65
2023-12-29T00:05:32.208Z,57.65
2023-12-29T00:06:32.196Z,57.65
2023-12-29T00:07:32.167Z,57.65
2023-12-29T00:08:32.146Z,57.65
2023-12-29T00:09:32.121Z,57.65
2023-12-29T00:10:32.093Z,57.75
2023-12-29T00:11:32.064Z,57.75
2023-12-29T00:12:32.088Z,57.75
2023-12-29T00:13:32.073Z,57.75
2023-12-29T00:14:32.041Z,57.75
2023-12-29T00:15:32.112Z,57.75
2023-12-29T00:16:32.009Z,57.75
2023-12-29T00:17:32.092Z,57.75
2023-12-29T00:18:32.130Z,57.75
2023-12-29T00:19:32.075Z,57.65
2023-12-29T00:20:38.225Z,57.75
2023-12-29T00:21:33.004Z,57.75
2023-12-29T00:22:31.960Z,57.75
2023-12-29T00:23:31.930Z,57.75
2023-12-29T00:24:31.968Z,57.75
2023-12-29T00:25:31.949Z,57.75
2023-12-29T00:26:31.898Z,57.75
2023-12-29T00:27:31.913Z,57.75
2023-12-29T00:28:31.930Z,57.75
2023-12-29T00:29:31.870Z,57.75
2023-12-29T00:30:44.008Z,57.75
2023-12-29T00:31:32.941Z,57.75
2023-12-29T00:32:31.915Z,57.75
2023-12-29T00:33:31.939Z,57.75
2023-12-29T00:34:31.968Z,57.75
2023-12-29T00:35:31.799Z,57.75
2023-12-29T00:36:31.794Z,57.75
2023-12-29T00:37:31.833Z,57.75
2023-12-29T00:38:31.813Z,57.75
2023-12-29T00:39:31.770Z,57.75
2023-12-29T00:40:31.770Z,57.75
2023-12-29T00:41:31.781Z,57.75
2023-12-29T00:42:31.775Z,57.75
2023-12-29T00:43:31.717Z,57.75
2023-12-29T00:44:31.696Z,57.75
2023-12-29T00:45:31.702Z,57.75
2023-12-29T00:46:31.685Z,57.75
2023-12-29T00:47:31.793Z,57.75
2023-12-29T00:48:31.928Z,57.75
2023-12-29T00:49:31.715Z,57.75
2023-12-29T00:50:31.649Z,57.75
2023-12-29T00:51:31.672Z,57.75
2023-12-29T00:52:31.606Z,57.75
2023-12-29T00:53:31.649Z,57.75
2023-12-29T00:54:31.702Z,57.75
2023-12-29T00:55:31.630Z,57.75
2023-12-29T00:56:31.564Z,57.75
2023-12-29T00:57:31.616Z,57.75
2023-12-29T00:58:31.549Z,57.75
2023-12-29T00:59:31.530Z,57.75
2023-12-29T01:00:31.646Z,57.75
2023-12-29T01:01:31.578Z,57.75
2023-12-29T01:02:31.499Z,57.75
2023-12-29T01:03:31.537Z,57.75
2023-12-29T01:04:31.565Z,57.75
2023-12-29T01:05:31.533Z,57.75
2023-12-29T01:06:31.490Z,57.75
2023-12-29T01:07:31.477Z,57.75
2023-12-29T01:08:31.431Z,57.75
2023-12-29T01:09:31.492Z,57.75
2023-12-29T01:10:31.438Z,57.75
2023-12-29T01:11:31.416Z,57.75
2023-12-29T01:12:31.433Z,57.75
2023-12-29T01:13:31.385Z,57.75
2023-12-29T01:14:31.366Z,57.75
2023-12-29T01:15:31.373Z,57.75
2023-12-29T01:16:31.364Z,57.75
2023-12-29T01:17:31.406Z,57.75
2023-12-29T01:18:31.588Z,57.75
2023-12-29T01:19:31.397Z,57.75
2023-12-29T01:20:31.331Z,57.85
2023-12-29T01:21:31.355Z,57.75
2023-12-29T01:22:31.275Z,57.75
2023-12-29T01:23:31.318Z,57.75
2023-12-29T01:24:39.851Z,57.75
2023-12-29T01:25:32.471Z,57.85
2023-12-29T01:26:31.254Z,57.75
2023-12-29T01:27:31.337Z,57.85
2023-12-29T01:28:31.254Z,57.75
2023-12-29T01:29:31.205Z,57.85
2023-12-29T01:30:31.204Z,57.75
2023-12-29T01:31:31.341Z,57.85
2023-12-29T01:32:31.207Z,57.85
2023-12-29T01:33:31.265Z,57.85
2023-12-29T01:34:31.187Z,57.85
2023-12-29T01:35:31.123Z,57.85
2023-12-29T01:36:31.175Z,57.85
2023-12-29T01:37:31.106Z,57.85
2023-12-29T01:38:31.101Z,57.85
2023-12-29T01:39:31.145Z,57.85
2023-12-29T01:40:31.075Z,57.85
2023-12-29T01:41:31.083Z,57.85
2023-12-29T01:42:31.094Z,57.85
2023-12-29T01:43:31.044Z,57.85
2023-12-29T01:44:31.029Z,57.85
2023-12-29T01:45:31.723Z,57.85
2023-12-29T01:46:31.065Z,57.85
2023-12-29T01:47:31.047Z,57.85
2023-12-29T01:48:31.188Z,57.85
2023-12-29T01:49:31.208Z,57.85
2023-12-29T01:50:30.965Z,57.85
2023-12-29T01:51:31.021Z,57.85
2023-12-29T01:52:30.940Z,57.85
2023-12-29T01:53:38.909Z,57.85
2023-12-29T01:54:31.967Z,57.85
2023-12-29T01:55:30.917Z,57.85
2023-12-29T01:56:30.902Z,57.85
2023-12-29T01:57:30.944Z,57.85
2023-12-29T01:58:30.884Z,57.85
2023-12-29T01:59:30.910Z,57.85
2023-12-29T02:00:30.921Z,57.85
2023-12-29T02:01:30.913Z,57.85
2023-12-29T02:02:30.862Z,57.85
2023-12-29T02:03:30.887Z,57.85
2023-12-29T02:04:30.974Z,57.85
2023-12-29T02:05:30.884Z,57.85
2023-12-29T02:06:30.816Z,57.85
2023-12-29T02:07:30.806Z,57.85
2023-12-29T02:08:30.771Z,57.85
2023-12-29T02:09:30.843Z,57.85
2023-12-29T02:10:30.748Z,57.85
2023-12-29T02:11:30.740Z,57.85
2023-12-29T02:12:30.817Z,57.85
2023-12-29T02:13:30.733Z,57.85
2023-12-29T02:14:30.704Z,57.85
2023-12-29T02:15:30.725Z,57.85
2023-12-29T02:16:30.712Z,57.85
2023-12-29T02:17:30.718Z,57.85
2023-12-29T02:18:30.858Z,57.85
2023-12-29T02:19:30.797Z,57.85
2023-12-29T02:20:30.636Z,57.85
2023-12-29T02:21:30.678Z,57.85
2023-12-29T02:22:30.629Z,57.85
2023-12-29T02:23:30.609Z,57.85
2023-12-29T02:24:30.620Z,57.85
2023-12-29T02:25:30.580Z,57.85
2023-12-29T02:26:30.568Z,57.85
2023-12-29T02:27:30.569Z,57.85
2023-12-29T02:28:30.560Z,57.85
2023-12-29T02:29:30.553Z,57.85
2023-12-29T02:30:30.599Z,57.85
2023-12-29T02:31:30.581Z,57.85
2023-12-29T02:32:30.580Z,57.85
2023-12-29T02:33:30.722Z,57.85
2023-12-29T02:34:30.669Z,57.85
2023-12-29T02:35:30.484Z,57.95
2023-12-29T02:36:30.475Z,57.95
2023-12-29T02:37:30.461Z,57.85
2023-12-29T02:38:30.454Z,57.95
2023-12-29T02:39:30.432Z,57.95
2023-12-29T02:40:30.426Z,57.95
2023-12-29T02:41:30.389Z,57.95
2023-12-29T02:42:30.465Z,57.95
2023-12-29T02:43:30.399Z,57.95
2023-12-29T02:44:30.361Z,57.95
2023-12-29T02:45:30.540Z,57.95
2023-12-29T02:46:30.370Z,57.95
2023-12-29T02:47:30.344Z,57.95
2023-12-29T02:48:30.456Z,57.95
2023-12-29T02:49:30.390Z,57.95
2023-12-29T02:50:30.295Z,57.95
2023-12-29T02:51:30.354Z,57.95
2023-12-29T02:52:30.301Z,57.95
2023-12-29T02:53:30.408Z,57.95
2023-12-29T02:54:30.324Z,57.95
2023-12-29T02:55:30.246Z,57.95
2023-12-29T02:56:30.233Z,57.95
2023-12-29T02:57:30.261Z,57.95
2023-12-29T02:58:30.234Z,57.95
2023-12-29T02:59:30.199Z,57.95
2023-12-29T03:00:30.245Z,57.95
2023-12-29T03:01:30.423Z,57.95
2023-12-29T03:02:30.165Z,57.95
2023-12-29T03:03:30.285Z,57.95
2023-12-29T03:04:30.187Z,57.95
2023-12-29T03:05:30.265Z,57.95
2023-12-29T03:06:30.181Z,57.95
2023-12-29T03:07:30.135Z,57.95
2023-12-29T03:08:30.098Z,58.05
2023-12-29T03:09:30.126Z,57.95
2023-12-29T03:10:30.141Z,58.05
2023-12-29T03:11:30.066Z,58.05
2023-12-29T03:12:30.142Z,58.05
2023-12-29T03:13:30.044Z,58.05
2023-12-29T03:14:30.032Z,58.05
2023-12-29T03:15:30.155Z,58.05
2023-12-29T03:16:30.058Z,58.05
2023-12-29T03:17:30.078Z,58.05
2023-12-29T03:18:30.140Z,58.05
2023-12-29T03:19:30.109Z,58.05
2023-12-29T03:20:29.971Z,58.05
2023-12-29T03:21:29.989Z,58.05
2023-12-29T03:22:29.974Z,58.05
2023-12-29T03:23:29.999Z,58.05
2023-12-29T03:24:29.970Z,58.05
2023-12-29T03:25:29.914Z,58.05
2023-12-29T03:26:29.919Z,58.05
2023-12-29T03:27:29.913Z,58.05
2023-12-29T03:28:29.956Z,58.05
2023-12-29T03:29:29.948Z,58.05
2023-12-29T03:30:29.955Z,58.05
2023-12-29T03:31:29.899Z,58.05
2023-12-29T03:32:29.881Z,58.05
2023-12-29T03:33:30.156Z,58.05
2023-12-29T03:34:29.901Z,58.05
2023-12-29T03:35:29.798Z,58.05
2023-12-29T03:36:29.795Z,58.05
2023-12-29T03:37:29.799Z,58.05
2023-12-29T03:38:29.793Z,58.05
2023-12-29T03:39:29.775Z,58.05
2023-12-29T03:40:29.742Z,58.05
2023-12-29T03:41:29.732Z,58.05
2023-12-29T03:42:29.780Z,58.05
2023-12-29T03:43:29.707Z,58.05
2023-12-29T03:44:29.702Z,58.05
2023-12-29T03:45:29.757Z,58.05
2023-12-29T03:46:29.719Z,58.05
2023-12-29T03:47:29.689Z,58.05
2023-12-29T03:48:29.850Z,58.05
2023-12-29T03:49:29.775Z,58.05
2023-12-29T03:50:29.633Z,58.05
2023-12-29T03:51:29.634Z,58.05
2023-12-29T03:52:29.614Z,58.05
2023-12-29T03:53:29.625Z,58.05
2023-12-29T03:54:29.692Z,58.05
2023-12-29T03:55:29.578Z,58.05
2023-12-29T03:56:29.567Z,58.05
2023-12-29T03:57:29.742Z,58.05
2023-12-29T03:58:29.563Z,58.05
2023-12-29T03:59:29.531Z,58.05
2023-12-29T04:00:29.669Z,58.05
2023-12-29T04:01:29.931Z,58.05
2023-12-29T04:02:29.530Z,58.05
2023-12-29T04:03:29.572Z,58.05
2023-12-29T04:04:29.549Z,58.05
2023-12-29T04:05:29.617Z,58.05
2023-12-29T04:06:29.651Z,58.05
2023-12-29T04:07:29.446Z,58.05
2023-12-29T04:08:29.430Z,58.05
2023-12-29T04:09:29.422Z,58.05
2023-12-29T04:10:29.454Z,58.15
2023-12-29T04:11:29.420Z,58.15
2023-12-29T04:12:29.414Z,58.15
2023-12-29T04:13:29.383Z,58.15
2023-12-29T04:14:29.366Z,58.15
2023-12-29T04:15:29.354Z,58.15
2023-12-29T04:16:29.376Z,58.15
2023-12-29T04:17:29.401Z,58.15
2023-12-29T04:18:29.396Z,58.15
2023-12-29T04:19:29.356Z,58.15
2023-12-29T04:20:29.334Z,58.05
2023-12-29T04:21:29.324Z,58.05
2023-12-29T04:22:29.297Z,58.15
2023-12-29T04:23:29.272Z,58.15
2023-12-29T04:24:29.282Z,58.05
2023-12-29T04:25:29.243Z,58.05
2023-12-29T04:26:29.240Z,58.05
2023-12-29T04:27:29.221Z,58.05
2023-12-29T04:28:29.220Z,58.05
2023-12-29T04:29:29.240Z,58.05
2023-12-29T04:30:29.229Z,58.05
2023-12-29T04:31:29.242Z,58.05
2023-12-29T04:32:29.246Z,58.05
2023-12-29T04:33:29.161Z,58.05
2023-12-29T04:34:29.219Z,58.05
2023-12-29T04:35:29.143Z,58.05
2023-12-29T04:36:29.126Z,58.05
2023-12-29T04:37:29.134Z,58.05
2023-12-29T04:38:29.129Z,58.05
2023-12-29T04:39:29.109Z,58.05
2023-12-29T04:40:29.082Z,58.05
2023-12-29T04:41:29.082Z,58.05
2023-12-29T04:42:29.062Z,58.05
2023-12-29T04:43:29.075Z,58.05
2023-12-29T04:44:29.034Z,58.05
2023-12-29T04:45:29.049Z,58.05
2023-12-29T04:46:29.027Z,58.05
2023-12-29T04:47:29.057Z,58.05
2023-12-29T04:48:29.013Z,58.05
2023-12-29T04:49:29.212Z,58.05
2023-12-29T04:50:29.023Z,58.05
2023-12-29T04:51:28.959Z,58.05
2023-12-29T04:52:28.948Z,58.05
2023-12-29T04:53:28.972Z,58.05
2023-12-29T04:54:28.966Z,58.05
2023-12-29T04:55:28.963Z,58.05
2023-12-29T04:56:28.909Z,58.05
2023-12-29T04:57:28.899Z,58.05
2023-12-29T04:58:28.891Z,58.05
2023-12-29T04:59:28.900Z,58.05
2023-12-29T05:00:28.884Z,58.05
2023-12-29T05:01:28.895Z,58.05
2023-12-29T05:02:28.841Z,58.05
2023-12-29T05:03:28.856Z,58.05
2023-12-29T05:04:28.939Z,58.05
2023-12-29T05:05:28.889Z,58.05
2023-12-29T05:06:28.802Z,58.05
2023-12-29T05:07:28.809Z,58.05
2023-12-29T05:08:28.782Z,58.05
2023-12-29T05:09:28.789Z,58.05
2023-12-29T05:10:28.775Z,58.05
2023-12-29T05:11:28.769Z,58.05
2023-12-29T05:12:28.737Z,58.05
2023-12-29T05:13:28.722Z,58.05
2023-12-29T05:14:28.708Z,58.05
2023-12-29T05:15:28.695Z,58.05
2023-12-29T05:16:28.711Z,58.05
2023-12-29T05:17:28.720Z,58.05
2023-12-29T05:18:28.771Z,58.05
2023-12-29T05:19:28.805Z,58.05
2023-12-29T05:20:28.656Z,58.05
2023-12-29T05:21:28.629Z,58.05
2023-12-29T05:22:28.623Z,58.05
2023-12-29T05:23:28.631Z,58.05
2023-12-29T05:24:28.597Z,58.05
2023-12-29T05:25:28.624Z,58.05
2023-12-29T05:26:28.581Z,58.05
2023-12-29T05:27:28.585Z,58.05
2023-12-29T05:28:28.620Z,58.05
2023-12-29T05:29:28.561Z,58.05
2023-12-29T05:30:28.565Z,58.05
2023-12-29T05:31:28.569Z,58.05
2023-12-29T05:32:28.583Z,58.05
2023-12-29T05:33:28.590Z,58.05
2023-12-29T05:34:28.649Z,58.05
2023-12-29T05:35:28.475Z,58.05
2023-12-29T05:36:28.467Z,58.05
2023-12-29T05:37:28.449Z,58.05
2023-12-29T05:38:28.441Z,58.05
2023-12-29T05:39:28.465Z,58.05
2023-12-29T05:40:28.446Z,58.05
2023-12-29T05:41:28.433Z,58.05
2023-12-29T05:42:28.396Z,58.05
2023-12-29T05:43:28.400Z,58.05
2023-12-29T05:44:28.401Z,58.05
2023-12-29T05:45:28.376Z,58.05
2023-12-29T05:46:28.357Z,58.05
2023-12-29T05:47:28.406Z,58.05
2023-12-29T05:48:28.536Z,58.05
2023-12-29T05:49:28.460Z,58.05
2023-12-29T05:50:28.339Z,58.05
2023-12-29T05:51:28.311Z,58.15
2023-12-29T05:52:28.314Z,58.05
2023-12-29T05:53:28.280Z,58.05
2023-12-29T05:54:28.270Z,58.05
2023-12-29T05:55:28.362Z,58.05
2023-12-29T05:56:28.251Z,58.05
2023-12-29T05:57:28.266Z,58.05
2023-12-29T05:58:28.228Z,58.05
2023-12-29T05:59:28.229Z,58.05
2023-12-29T06:00:28.230Z,58.05
2023-12-29T06:01:28.300Z,58.05
2023-12-29T06:02:28.180Z,58.05
2023-12-29T06:03:28.195Z,58.05
2023-12-29T06:04:28.180Z,58.05
2023-12-29T06:05:28.183Z,58.05
2023-12-29T06:06:28.159Z,58.05
2023-12-29T06:07:28.126Z,58.05
2023-12-29T06:08:28.142Z,58.05
2023-12-29T06:09:28.116Z,58.05
2023-12-29T06:10:28.097Z,58.05
2023-12-29T06:11:28.081Z,58.05
2023-12-29T06:12:28.074Z,58.05
2023-12-29T06:13:28.090Z,58.05
2023-12-29T06:14:28.102Z,58.05
2023-12-29T06:15:28.050Z,58.05
2023-12-29T06:16:28.068Z,58.05
2023-12-29T06:17:28.032Z,58.05
2023-12-29T06:18:28.152Z,58.05
2023-12-29T06:19:28.075Z,58.05
2023-12-29T06:20:28.017Z,58.05
2023-12-29T06:21:27.972Z,58.05
2023-12-29T06:22:27.960Z,58.05
2023-12-29T06:23:27.976Z,58.05
2023-12-29T06:24:27.938Z,58.05
2023-12-29T06:25:27.966Z,58.05
2023-12-29T06:26:27.936Z,58.05
2023-12-29T06:27:27.914Z,58.05
2023-12-29T06:28:27.960Z,58.05
2023-12-29T06:29:27.909Z,58.05
2023-12-29T06:30:27.941Z,58.05
2023-12-29T06:31:27.928Z,58.05
2023-12-29T06:32:27.922Z,58.05
2023-12-29T06:33:27.922Z,58.05
2023-12-29T06:34:27.929Z,58.05
2023-12-29T06:35:27.817Z,58.05
2023-12-29T06:36:27.810Z,58.05
2023-12-29T06:37:27.798Z,58.05
2023-12-29T06:38:27.813Z,58.05
2023-12-29T06:39:27.776Z,58.05
2023-12-29T06:40:27.765Z,58.05
2023-12-29T06:41:27.755Z,58.05
2023-12-29T06:42:27.741Z,58.05
2023-12-29T06:43:27.758Z,58.05
2023-12-29T06:44:27.723Z,58.05
2023-12-29T06:45:27.738Z,58.05
2023-12-29T06:46:27.719Z,58.05
2023-12-29T06:47:27.755Z,58.05
2023-12-29T06:48:27.865Z,58.05
2023-12-29T06:49:27.767Z,58.05
2023-12-29T06:50:27.690Z,58.05
2023-12-29T06:51:27.652Z,58.05
2023-12-29T06:52:27.660Z,58.05
2023-12-29T06:53:27.623Z,58.05
2023-12-29T06:54:27.639Z,58.05
2023-12-29T06:55:27.756Z,58.05
2023-12-29T06:56:27.594Z,58.05
2023-12-29T06:57:27.591Z,58.05
2023-12-29T06:58:27.659Z,58.05
2023-12-29T06:59:27.552Z,58.05
2023-12-29T07:00:27.599Z,58.05
2023-12-29T07:01:27.713Z,58.05
2023-12-29T07:02:27.640Z,58.05
2023-12-29T07:03:27.604Z,58.05
2023-12-29T07:04:27.557Z,58.05
2023-12-29T07:05:27.505Z,58.05
2023-12-29T07:06:27.483Z,58.05
2023-12-29T07:07:27.515Z,58.05
2023-12-29T07:08:27.483Z,58.05
2023-12-29T07:09:27.444Z,58.05
2023-12-29T07:10:27.433Z,58.05
2023-12-29T07:11:27.432Z,58.05
2023-12-29T07:12:27.418Z,58.05
2023-12-29T07:13:27.404Z,58.05
2023-12-29T07:14:27.416Z,58.05
2023-12-29T07:15:27.423Z,58.05
2023-12-29T07:16:27.382Z,58.05
2023-12-29T07:17:27.539Z,58.05
2023-12-29T07:18:27.477Z,58.05
2023-12-29T07:19:27.367Z,58.05
2023-12-29T07:20:27.347Z,58.05
2023-12-29T07:21:27.345Z,58.05
2023-12-29T07:22:27.306Z,58.05
2023-12-29T07:23:27.295Z,58.05
2023-12-29T07:24:27.283Z,58.05
2023-12-29T07:25:27.334Z,58.05
2023-12-29T07:26:27.268Z,58.05
2023-12-29T07:27:27.263Z,58.05
2023-12-29T07:28:27.318Z,58.05
2023-12-29T07:29:27.232Z,58.05
2023-12-29T07:30:27.339Z,58.05
2023-12-29T07:31:27.302Z,58.05
2023-12-29T07:32:27.230Z,58.05
2023-12-29T07:33:27.350Z,58.05
2023-12-29T07:34:27.377Z,58.05
2023-12-29T07:35:27.331Z,58.05
2023-12-29T07:36:27.182Z,58.05
2023-12-29T07:37:27.168Z,58.05
2023-12-29T07:38:27.134Z,58.05
2023-12-29T07:39:27.124Z,58.05
2023-12-29T07:40:27.233Z,58.05
2023-12-29T07:41:27.125Z,58.05
2023-12-29T07:42:27.107Z,58.05
2023-12-29T07:43:27.082Z,58.05
2023-12-29T07:44:27.090Z,58.05
2023-12-29T07:45:27.071Z,58.05
2023-12-29T07:46:27.084Z,58.05
2023-12-29T07:47:27.064Z,58.05
2023-12-29T07:48:27.112Z,58.05
2023-12-29T07:49:27.154Z,58.05
2023-12-29T07:50:27.006Z,58.05
2023-12-29T07:51:26.990Z,58.05
2023-12-29T07:52:27.010Z,57.95
2023-12-29T07:53:27.005Z,57.95
2023-12-29T07:54:26.966Z,57.95
2023-12-29T07:55:26.960Z,57.92
2023-12-29T07:56:26.967Z,57.95
2023-12-29T07:57:26.980Z,57.92
2023-12-29T07:58:26.943Z,57.92
2023-12-29T07:59:26.928Z,57.92
2023-12-29T08:00:26.918Z,57.92
2023-12-29T08:01:26.954Z,57.95
2023-12-29T08:02:26.896Z,57.92
2023-12-29T08:03:26.872Z,57.92
2023-12-29T08:04:26.993Z,57.92
2023-12-29T08:05:26.891Z,57.92
2023-12-29T08:06:26.869Z,57.92
2023-12-29T08:07:26.846Z,57.92
2023-12-29T08:08:26.810Z,57.92
2023-12-29T08:09:26.805Z,57.92
2023-12-29T08:10:26.787Z,57.92
2023-12-29T08:11:26.797Z,57.92
2023-12-29T08:12:26.776Z,57.92
2023-12-29T08:13:26.753Z,57.92
2023-12-29T08:14:26.773Z,57.92
2023-12-29T08:15:26.731Z,57.92
2023-12-29T08:16:26.748Z,57.92
2023-12-29T08:17:26.785Z,57.92
2023-12-29T08:18:26.783Z,57.92
2023-12-29T08:19:26.775Z,57.92
2023-12-29T08:20:26.678Z,57.92
2023-12-29T08:21:26.695Z,57.92
2023-12-29T08:22:26.653Z,57.92
2023-12-29T08:23:26.668Z,57.92
2023-12-29T08:24:26.637Z,57.92
2023-12-29T08:25:26.623Z,57.92
2023-12-29T08:26:26.621Z,57.92
2023-12-29T08:27:26.600Z,57.92
2023-12-29T08:28:26.660Z,57.92
2023-12-29T08:29:26.577Z,57.92
2023-12-29T08:30:26.655Z,57.92
2023-12-29T08:31:26.600Z,57.92
2023-12-29T08:32:26.609Z,57.92
2023-12-29T08:33:26.575Z,57.92
2023-12-29T08:34:28.519Z,57.92
2023-12-29T08:35:26.517Z,57.92
2023-12-29T08:36:26.497Z,57.92
2023-12-29T08:37:26.538Z,57.92
2023-12-29T08:38:26.476Z,57.92
2023-12-29T08:39:26.491Z,57.92
2023-12-29T08:40:26.571Z,57.92
2023-12-29T08:41:26.453Z,57.92
2023-12-29T08:42:26.461Z,57.82
2023-12-29T08:43:26.428Z,57.92
2023-12-29T08:44:26.420Z,57.92
2023-12-29T08:45:26.437Z,57.82
2023-12-29T08:46:26.437Z,57.82
2023-12-29T08:47:26.399Z,57.92
2023-12-29T08:48:26.797Z,57.92
2023-12-29T08:49:26.447Z,57.92
2023-12-29T08:50:26.347Z,57.82
2023-12-29T08:51:26.355Z,57.82
2023-12-29T08:52:26.343Z,57.82
2023-12-29T08:53:26.366Z,57.82
2023-12-29T08:54:26.303Z,57.82
2023-12-29T08:55:26.291Z,57.82
2023-12-29T08:56:28.398Z,57.82
2023-12-29T08:57:26.274Z,57.82
2023-12-29T08:58:26.291Z,57.82
2023-12-29T08:59:26.278Z,57.82
2023-12-29T09:00:26.238Z,57.82
2023-12-29T09:01:26.301Z,57.82
2023-12-29T09:02:26.256Z,57.82
2023-12-29T09:03:26.231Z,57.82
2023-12-29T09:04:26.243Z,57.82
2023-12-29T09:05:26.203Z,57.82
2023-12-29T09:06:26.219Z,57.82
2023-12-29T09:07:26.234Z,57.82
2023-12-29T09:08:26.157Z,57.82
2023-12-29T09:09:26.170Z,57.82
2023-12-29T09:10:26.243Z,57.82
2023-12-29T09:11:26.116Z,57.82
2023-12-29T09:12:26.107Z,57.82
2023-12-29T09:13:26.095Z,57.82
2023-12-29T09:14:26.103Z,57.82
2023-12-29T09:15:26.081Z,57.82
2023-12-29T09:16:26.066Z,57.82
2023-12-29T09:17:26.075Z,57.82
2023-12-29T09:18:26.158Z,57.82
2023-12-29T09:19:31.622Z,57.82
2023-12-29T09:20:27.091Z,57.82
2023-12-29T09:21:26.038Z,57.82
2023-12-29T09:22:26.069Z,57.82
2023-12-29T09:23:25.996Z,57.82
2023-12-29T09:24:26.000Z,57.82
2023-12-29T09:25:26.053Z,57.82
2023-12-29T09:26:25.954Z,57.82
2023-12-29T09:27:25.944Z,57.82
2023-12-29T09:28:25.997Z,57.82
2023-12-29T09:29:25.924Z,57.82
2023-12-29T09:30:26.014Z,57.82
2023-12-29T09:31:25.981Z,57.82
2023-12-29T09:32:25.925Z,57.82
2023-12-29T09:33:26.003Z,57.82
2023-12-29T09:34:26.012Z,57.82
2023-12-29T09:35:25.901Z,57.82
2023-12-29T09:36:25.875Z,57.82
2023-12-29T09:37:25.842Z,57.82
2023-12-29T09:38:25.866Z,57.82
2023-12-29T09:39:25.814Z,57.82
2023-12-29T09:40:25.843Z,57.82
2023-12-29T09:41:25.817Z,57.82
2023-12-29T09:42:25.788Z,57.82
2023-12-29T09:43:25.870Z,57.82
2023-12-29T09:44:25.762Z,57.82
2023-12-29T09:45:25.833Z,57.82
2023-12-29T09:46:25.778Z,57.82
2023-12-29T09:47:25.756Z,57.82
2023-12-29T09:48:25.743Z,57.82
2023-12-29T09:49:25.773Z,57.82
2023-12-29T09:50:25.692Z,57.92
2023-12-29T09:51:25.699Z,57.82
2023-12-29T09:52:25.673Z,57.82
2023-12-29T09:53:25.680Z,57.92
2023-12-29T09:54:25.650Z,57.92
2023-12-29T09:55:25.746Z,57.92
2023-12-29T09:56:25.636Z,57.82
2023-12-29T09:57:25.648Z,57.82
2023-12-29T09:58:25.635Z,57.92
2023-12-29T09:59:25.594Z,57.92
2023-12-29T10:00:25.616Z,57.82
2023-12-29T10:01:25.763Z,57.92
2023-12-29T10:02:25.569Z,57.82
2023-12-29T10:03:25.549Z,57.92
2023-12-29T10:04:25.599Z,57.82
2023-12-29T10:05:25.743Z,57.92
2023-12-29T10:06:25.538Z,57.92
2023-12-29T10:07:25.543Z,57.82
2023-12-29T10:08:25.528Z,57.92
2023-12-29T10:09:25.484Z,57.82
2023-12-29T10:10:25.524Z,57.82
2023-12-29T10:11:25.467Z,57.82
2023-12-29T10:12:25.459Z,57.82
2023-12-29T10:13:25.552Z,57.92
2023-12-29T10:14:25.434Z,57.92
2023-12-29T10:15:25.417Z,57.92
2023-12-29T10:16:25.472Z,57.92
2023-12-29T10:17:25.409Z,57.82
2023-12-29T10:18:26.007Z,57.92
2023-12-29T10:19:25.498Z,57.92
2023-12-29T10:20:25.360Z,57.92
2023-12-29T10:21:25.386Z,57.92
2023-12-29T10:22:25.400Z,57.92
2023-12-29T10:23:25.350Z,57.92
2023-12-29T10:24:25.328Z,57.92
2023-12-29T10:25:25.358Z,57.92
2023-12-29T10:26:25.299Z,57.92
2023-12-29T10:27:25.322Z,57.92
2023-12-29T10:28:25.381Z,57.92
2023-12-29T10:29:25.315Z,57.92
2023-12-29T10:30:31.419Z,57.92
2023-12-29T10:31:26.383Z,57.92
2023-12-29T10:32:25.268Z,57.92
2023-12-29T10:33:25.318Z,57.92
2023-12-29T10:34:25.248Z,57.92
2023-12-29T10:35:27.234Z,57.92
2023-12-29T10:36:25.218Z,57.92
2023-12-29T10:37:25.222Z,57.92
2023-12-29T10:38:25.186Z,57.92
2023-12-29T10:39:25.152Z,57.92
2023-12-29T10:40:25.208Z,57.92
2023-12-29T10:41:25.153Z,57.92
2023-12-29T10:42:25.122Z,57.92
2023-12-29T10:43:25.212Z,57.92
2023-12-29T10:44:25.101Z,57.92
2023-12-29T10:45:25.159Z,57.92
2023-12-29T10:46:25.189Z,57.92
2023-12-29T10:47:25.093Z,57.92
2023-12-29T10:48:25.088Z,57.92
2023-12-29T10:49:25.167Z,57.92
2023-12-29T10:50:25.030Z,57.92
2023-12-29T10:51:25.028Z,57.92
2023-12-29T10:52:25.060Z,57.92
2023-12-29T10:53:25.021Z,57.92
2023-12-29T10:54:24.993Z,57.92
2023-12-29T10:55:25.170Z,57.92
2023-12-29T10:56:24.986Z,57.92
2023-12-29T10:57:24.952Z,57.92
2023-12-29T10:58:25.013Z,57.92
2023-12-29T10:59:24.934Z,57.92
2023-12-29T11:00:24.947Z,57.92
2023-12-29T11:01:25.114Z,57.92
2023-12-29T11:02:24.939Z,57.92
2023-12-29T11:03:24.887Z,57.92
2023-12-29T11:04:24.975Z,57.92
2023-12-29T11:05:24.912Z,57.92
2023-12-29T11:06:24.865Z,57.92
2023-12-29T11:07:24.900Z,57.92
2023-12-29T11:08:24.837Z,57.92
2023-12-29T11:09:24.846Z,57.92
2023-12-29T11:10:24.924Z,57.92
2023-12-29T11:11:24.821Z,57.92
2023-12-29T11:12:24.789Z,57.92
2023-12-29T11:13:24.852Z,57.92
2023-12-29T11:14:24.769Z,57.92
2023-12-29T11:15:24.778Z,57.92
2023-12-29T11:16:24.772Z,57.92
2023-12-29T11:17:24.844Z,57.92
2023-12-29T11:18:24.764Z,57.92
2023-12-29T11:19:24.866Z,57.92
2023-12-29T11:20:24.713Z,57.92
2023-12-29T11:21:24.688Z,57.92
2023-12-29T11:22:24.747Z,57.92
2023-12-29T11:23:24.693Z,57.92
2023-12-29T11:24:30.986Z,57.92
2023-12-29T11:25:25.743Z,57.92
2023-12-29T11:26:24.638Z,57.92
2023-12-29T11:27:24.620Z,57.92
2023-12-29T11:28:24.662Z,57.92
2023-12-29T11:29:24.625Z,57.92
2023-12-29T11:30:24.653Z,57.92
2023-12-29T11:31:24.744Z,58.02
2023-12-29T11:32:24.640Z,57.92
2023-12-29T11:33:24.734Z,57.92
2023-12-29T11:34:24.666Z,57.92
2023-12-29T11:35:26.043Z,58.02
2023-12-29T11:36:31.508Z,57.92
2023-12-29T11:37:25.551Z,58.02
2023-12-29T11:38:24.512Z,58.02
2023-12-29T11:39:24.518Z,58.02
2023-12-29T11:40:24.604Z,58.02
2023-12-29T11:41:24.471Z,58.02
2023-12-29T11:42:24.503Z,58.02
2023-12-29T11:43:24.474Z,58.02
2023-12-29T11:44:24.455Z,58.02
2023-12-29T11:45:24.448Z,58.02
2023-12-29T11:46:24.442Z,58.02
2023-12-29T11:47:24.469Z,58.02
2023-12-29T11:48:24.486Z,58.02
2023-12-29T11:49:24.640Z,58.02
2023-12-29T11:50:24.390Z,58.02
2023-12-29T11:51:24.358Z,58.02
2023-12-29T11:52:24.428Z,58.02
2023-12-29T11:53:24.356Z,58.02
2023-12-29T11:54:24.334Z,58.02
2023-12-29T11:55:24.363Z,58.02
2023-12-29T11:56:24.300Z,58.02
2023-12-29T11:57:24.290Z,58.02
2023-12-29T11:58:24.384Z,58.02
2023-12-29T11:59:24.271Z,58.02
2023-12-29T12:00:24.358Z,58.02
2023-12-29T12:01:24.395Z,58.02
2023-12-29T12:02:24.235Z,58.02
2023-12-29T12:03:24.264Z,58.02
2023-12-29T12:04:24.252Z,58.02
2023-12-29T12:05:24.251Z,58.02
2023-12-29T12:06:24.212Z,58.02
2023-12-29T12:07:24.240Z,58.02
2023-12-29T12:08:24.173Z,58.02
2023-12-29T12:09:24.159Z,58.02
2023-12-29T12:10:24.234Z,58.02
2023-12-29T12:11:24.163Z,58.02
2023-12-29T12:12:24.142Z,58.02
2023-12-29T12:13:24.151Z,58.02
2023-12-29T12:14:24.107Z,58.02
2023-12-29T12:15:24.114Z,58.02
2023-12-29T12:16:24.136Z,58.02
2023-12-29T12:17:24.161Z,58.02
2023-12-29T12:18:24.093Z,58.02
2023-12-29T12:19:24.077Z,58.02
2023-12-29T12:20:24.037Z,58.02
2023-12-29T12:21:24.074Z,58.02
2023-12-29T12:22:24.100Z,58.02
2023-12-29T12:23:24.003Z,58.02
2023-12-29T12:24:24.044Z,57.92
2023-12-29T12:25:24.092Z,57.92
2023-12-29T12:26:23.972Z,57.92
2023-12-29T12:27:23.958Z,57.92
2023-12-29T12:28:24.069Z,57.92
2023-12-29T12:29:23.936Z,57.92
2023-12-29T12:30:24.058Z,57.92
2023-12-29T12:31:24.000Z,57.82
2023-12-29T12:32:23.901Z,57.82
2023-12-29T12:33:23.997Z,57.82
2023-12-29T12:34:25.074Z,57.82
2023-12-29T12:35:24.219Z,57.82
2023-12-29T12:36:23.859Z,57.82
2023-12-29T12:37:23.902Z,57.82
2023-12-29T12:38:23.845Z,57.82
2023-12-29T12:39:23.822Z,57.82
2023-12-29T12:40:23.890Z,57.82
2023-12-29T12:41:23.799Z,57.82
2023-12-29T12:42:23.789Z,57.82
2023-12-29T12:43:23.812Z,57.82
2023-12-29T12:44:23.770Z,57.90
2023-12-29T12:45:24.046Z,57.79
2023-12-29T12:46:23.872Z,57.79
2023-12-29T12:47:23.782Z,57.79
2023-12-29T12:48:23.878Z,57.79
2023-12-29T12:49:23.825Z,57.79
2023-12-29T12:50:23.712Z,57.79
2023-12-29T12:51:23.713Z,57.79
2023-12-29T12:52:23.726Z,57.90